UNTT/TOF METAR and TAF weather

Enter ICAO airport designator
Station Type Date Time Source
UNTT METAR 2021/09/28 03:30 UTC NOAA

UNTT 280330Z 00000MPS CAVOK 04/02 Q1021 R21/090060 NOSIG RMK QFE750


Station Type Date Time Source
UNTT Decoded METAR 2021/09/28 03:30 UTC NOAA

Station name not available
Sep 27, 2021 - 11:30 PM EDT / 2021.09.28 0330 UTC
Wind: Calm:0
Visibility: greater than 7 mile(s):0
Temperature: 39 F (4 C)
Dew Point: 35 F (2 C)
Relative Humidity: 86%
Pressure (altimeter): 30.15 in. Hg (1021 hPa)
ob: UNTT 280330Z 00000MPS CAVOK 04/02 Q1021 R21/090060 NOSIG RMK QFE750
cycle: 3

Station Type Date Time Source
UNTT TAF UTC NOAA

Error!

Example: see airport list